Flight Track Log - Related Links

Times and Time Zones

All times are in EDT time to prevent confusion due to time zone crossing. See the N5659W flight status page for this flight to view local times or setup timezone preferences in your user account.

Time Position Orientation Groundspeed Altitude Reporting Facility
EDT Latitude Longitude Course Direction KTS MPH feet Rate Location/Type
Fri 03:32:30 PM 36.1575 -93.7003 38° Northeast 87 100 4,500  Level Memphis Center
Fri 03:33:32 PM 36.1772 -93.6811 38° Northeast 82 94 5,100 532 Climbing Memphis Center
Fri 03:34:34 PM 36.1919 -93.6644 42° Northeast 77 89 5,600 484 Climbing Memphis Center
Fri 03:35:36 PM 36.2061 -93.6478 44° Northeast 72 83 6,100 432 Climbing Memphis Center
Fri 03:36:39 PM 36.2208 -93.6292 46° Northeast 72 83 6,500 432 Climbing Memphis Center
Fri 03:37:41 PM 36.2344 -93.6075 52° Northeast 75 86 7,000 435 Climbing Memphis Center
Fri 03:38:43 PM 36.2467 -93.5897 50° Northeast 73 84 7,400 387 Climbing Memphis Center
Fri 03:39:45 PM 36.2631 -93.5697 45° Northeast 72 83 7,800 387 Climbing Memphis Center
Fri 03:40:47 PM 36.2753 -93.5531 48° Northeast 71 82 8,200 339 Climbing Memphis Center
Fri 03:41:49 PM 36.2881 -93.5322 53° Northeast 71 82 8,500 194 Climbing Memphis Center
Fri 03:42:51 PM 36.3022 -93.5164 42° Northeast 71 82 8,600 97 Climbing Memphis Center
Fri 03:43:53 PM 36.3161 -93.5022 39° Northeast 71 82 8,700 145 Climbing Memphis Center
Fri 03:44:55 PM 36.3339 -93.4808 44° Northeast 71 82 8,900 145 Climbing Memphis Center
Fri 03:45:57 PM 36.3489 -93.4603 48° Northeast 72 83 9,000 97 Climbing Memphis Center
Fri 03:46:59 PM 36.3669 -93.4389 44° Northeast 83 96 9,100  Climbing Memphis Center
Fri 03:48:02 PM 36.3872 -93.4175 40° Northeast 90 104 9,000  Descending Memphis Center
Fri 03:49:04 PM 36.4064 -93.3964 42° Northeast 91 105 9,100 48 Climbing Memphis Center
Fri 03:50:06 PM 36.4264 -93.3758 40° Northeast 91 105 9,100 48 Level Memphis Center
Fri 03:51:08 PM 36.4494 -93.3544 37° Northeast 91 105 9,200  Climbing Memphis Center
Fri 03:52:10 PM 36.4717 -93.3333 37° Northeast 98 113 9,100 -48 Descending Memphis Center
Fri 03:53:12 PM 36.4919 -93.3097 43° Northeast 99 114 9,100 -48 Level Memphis Center
Fri 03:54:14 PM 36.5108 -93.2861 45° Northeast 99 114 9,000  Descending Memphis Center
Fri 03:55:16 PM 36.5303 -93.2614 46° Northeast 99 114 9,100 48 Climbing Memphis Center
Fri 03:56:18 PM 36.5503 -93.2389 42° Northeast 99 114 9,100  Level Memphis Center
Fri 03:57:20 PM 36.5756 -93.2144 38° Northeast 99 114 9,100  Level Memphis Center
Fri 03:58:22 PM 36.5947 -93.1886 47° Northeast 99 114 9,100  Level Memphis Center
Fri 03:59:24 PM 36.6139 -93.1639 46° Northeast 99 114 9,100  Level Memphis Center
Fri 04:00:26 PM 36.6344 -93.1419 41° Northeast 99 114 9,100  Level Memphis Center
Fri 04:01:29 PM 36.6544 -93.1189 43° Northeast 98 113 9,100  Level Memphis Center
Fri 04:02:31 PM 36.6739 -93.0978 41° Northeast 97 112 9,100  Level Memphis Center
Fri 04:03:33 PM 36.6939 -93.0767 40° Northeast 96 110 9,100 -48 Level Memphis Center
Fri 04:04:35 PM 36.7186 -93.0503 41° Northeast 96 110 9,000  Descending Memphis Center
Fri 04:05:37 PM 36.7400 -93.0292 38° Northeast 96 110 9,100  Climbing Memphis Center
Fri 04:06:39 PM 36.7611 -93.0086 38° Northeast 96 110 9,000 -48 Descending Memphis Center
Fri 04:07:41 PM 36.7800 -92.9875 42° Northeast 95 109 9,000  Level Memphis Center
Fri 04:08:49 PM 36.8031 -92.9606 43° Northeast 94 108 9,000  Level Kansas City Center
Fri 04:09:52 PM 36.8239 -92.9400 38° Northeast 94 108 9,000 48 Level Kansas City Center
Fri 04:10:53 PM 36.8436 -92.9186 41° Northeast 94 108 9,100 48 Climbing Kansas City Center
Fri 04:11:56 PM 36.8636 -92.8967 41° Northeast 94 108 9,100 -47 Level Kansas City Center
Fri 04:13:00 PM 36.8844 -92.8744 40° Northeast 94 108 9,000  Descending Kansas City Center
Fri 04:14:00 PM 36.9044 -92.8506 44° Northeast 95 109 9,100  Climbing Kansas City Center
Fri 04:15:03 PM 36.9289 -92.8219 43° Northeast 95 109 9,000  Descending Kansas City Center
Fri 04:16:04 PM 36.9497 -92.7997 40° Northeast 96 110 9,100  Climbing Kansas City Center
Fri 04:17:08 PM 36.9706 -92.7794 38° Northeast 96 110 9,000 -48 Descending Kansas City Center
Fri 04:18:09 PM 36.9906 -92.7578 41° Northeast 96 110 9,000 49 Level Kansas City Center
Fri 04:19:10 PM 37.0108 -92.7347 42° Northeast 96 110 9,100 49 Climbing Kansas City Center
Fri 04:20:11 PM 37.0319 -92.7128 40° Northeast 96 110 9,100 144 Level Kansas City Center
Fri 04:21:15 PM 37.0489 -92.6922 44° Northeast 94 108 9,400 288 Climbing Kansas City Center
Fri 04:22:16 PM 37.0717 -92.6692 39° Northeast 91 105 9,700 197 Climbing Kansas City Center
Fri 04:23:17 PM 37.0897 -92.6528 36° Northeast 86 99 9,800 144 Climbing Kansas City Center
Fri 04:24:21 PM 37.1053 -92.6353 42° Northeast 81 93 10,000 189 Climbing Kansas City Center
Fri 04:25:24 PM 37.1225 -92.6158 42° Northeast 80 92 10,200 242 Climbing Kansas City Center
Fri 04:26:25 PM 37.1406 -92.5967 40° Northeast 80 92 10,500 197 Climbing Kansas City Center
Fri 04:27:26 PM 37.1561 -92.5775 44° Northeast 80 92 10,600 96 Climbing Kansas City Center
Fri 04:28:30 PM 37.1742 -92.5561 43° Northeast 81 93 10,700 192 Climbing Kansas City Center
Fri 04:29:31 PM 37.1956 -92.5283 46° Northeast 87 100 11,000 197 Climbing Kansas City Center
Fri 04:30:32 PM 37.2136 -92.5061 44° Northeast 87 100 11,100 48 Climbing Kansas City Center
Fri 04:31:37 PM 37.2342 -92.4825 42° Northeast 93 107 11,100  Level Kansas City Center
Fri 04:32:37 PM 37.2553 -92.4592 41° Northeast 97 112 11,100  Level Kansas City Center
Fri 04:33:41 PM 37.2764 -92.4339 44° Northeast 98 113 11,100  Level Kansas City Center
Fri 04:34:42 PM 37.2978 -92.4058 46° Northeast 103 119 11,100  Level Kansas City Center
Fri 04:35:43 PM 37.3194 -92.3783 45° Northeast 106 122 11,100 -48 Level Kansas City Center
Fri 04:36:46 PM 37.3458 -92.3500 40° Northeast 106 122 11,000  Descending Kansas City Center
Fri 04:37:48 PM 37.3678 -92.3294 37° Northeast 105 121 11,100  Climbing Kansas City Center
Fri 04:38:50 PM 37.3914 -92.3086 35° Northeast 104 120 11,000  Descending Kansas City Center
Fri 04:39:53 PM 37.4117 -92.2831 45° Northeast 103 119 11,100  Climbing Kansas City Center
Fri 04:40:54 PM 37.4333 -92.2578 43° Northeast 104 120 11,000 -48 Descending Kansas City Center
Fri 04:41:57 PM 37.4539 -92.2314 46° Northeast 104 120 11,000 49 Level Kansas City Center
Fri 04:42:57 PM 37.4747 -92.2056 45° Northeast 104 120 11,100  Climbing Kansas City Center
Fri 04:44:00 PM 37.5006 -92.1781 40° Northeast 104 120 11,000 -48 Descending Kansas City Center
Fri 04:45:02 PM 37.5222 -92.1561 39° Northeast 103 119 11,000  Level Kansas City Center
Fri 04:46:05 PM 37.5431 -92.1325 42° Northeast 103 119 11,000  Level Kansas City Center
Fri 04:47:06 PM 37.5642 -92.1083 42° Northeast 103 119 11,000 -49 Level Kansas City Center
Fri 04:48:07 PM 37.5842 -92.0842 44° Northeast 103 119 10,900 -48 Descending Kansas City Center
Fri 04:49:11 PM 37.6058 -92.0597 42° Northeast 103 119 10,900 48 Level Kansas City Center
Fri 04:50:11 PM 37.6300 -92.0317 43° Northeast 102 117 11,000 48 Climbing Kansas City Center
Fri 04:51:15 PM 37.6497 -92.0089 42° Northeast 101 116 11,000  Level Kansas City Center
Fri 04:52:15 PM 37.6708 -91.9847 42° Northeast 101 116 11,000  Level Kansas City Center
Fri 04:53:20 PM 37.6922 -91.9622 40° Northeast 101 116 11,000  Level Kansas City Center
Fri 04:54:21 PM 37.7131 -91.9392 41° Northeast 101 116 11,000  Level Kansas City Center
Fri 04:55:22 PM 37.7347 -91.9144 42° Northeast 101 116 11,000  Level Kansas City Center
Fri 04:56:23 PM 37.7572 -91.8903 40° Northeast 101 116 11,000 -48 Level Kansas City Center
Fri 04:57:27 PM 37.7833 -91.8600 42° Northeast 102 117 10,900  Descending Kansas City Center
Fri 04:58:28 PM 37.8042 -91.8364 42° Northeast 102 117 11,000 47 Climbing Kansas City Center
Fri 04:59:35 PM 37.8239 -91.8108 46° Northeast 102 117 11,000  Level Kansas City Center
Fri 05:00:36 PM 37.8442 -91.7881 42° Northeast 101 116 11,000  Level Kansas City Center
Fri 05:01:37 PM 37.8650 -91.7636 43° Northeast 101 116 11,000 48 Level Kansas City Center
Fri 05:02:41 PM 37.8903 -91.7378 39° Northeast 101 116 11,100 97 Climbing Kansas City Center
Fri 05:03:41 PM 37.9114 -91.7156 40° Northeast 101 116 11,200 48 Climbing Kansas City Center
Fri 05:04:45 PM 37.9314 -91.6917 43° Northeast 100 115 11,200  Level Kansas City Center
Fri 05:05:46 PM 37.9519 -91.6675 43° Northeast 100 115 11,200  Level Kansas City Center
Fri 05:06:47 PM 37.9736 -91.6439 41° Northeast 101 116 11,200  Level Kansas City Center
Fri 05:07:50 PM 37.9950 -91.6183 43° Northeast 102 117 11,200  Level Kansas City Center
Fri 05:08:51 PM 38.0167 -91.5928 43° Northeast 103 119 11,200 -48 Level Kansas City Center
Fri 05:09:55 PM 38.0417 -91.5639 42° Northeast 103 119 11,100 -48 Descending Kansas City Center
Fri 05:10:56 PM 38.0625 -91.5408 41° Northeast 102 117 11,100 -49 Level Kansas City Center
Fri 05:11:57 PM 38.0814 -91.5181 44° Northeast 99 114 11,000  Descending Kansas City Center
Fri 05:13:01 PM 38.1014 -91.4983 38° Northeast 94 108 11,100 48 Climbing Kansas City Center
Fri 05:14:01 PM 38.1197 -91.4750 45° Northeast 93 107 11,100  Level Kansas City Center
Fri 05:15:04 PM 38.1397 -91.4503 44° Northeast 95 109 11,100 48 Level Kansas City Center
Fri 05:16:06 PM 38.1603 -91.4269 42° Northeast 96 110 11,200 -49 Climbing Kansas City Center
Fri 05:17:07 PM 38.1853 -91.3986 42° Northeast 97 112 11,000 -48 Descending Kansas City Center
Fri 05:18:10 PM 38.2036 -91.3775 42° Northeast 97 112 11,100 48 Climbing Kansas City Center
Fri 05:19:11 PM 38.2233 -91.3525 45° Northeast 97 112 11,100  Level Kansas City Center
Fri 05:20:16 PM 38.2447 -91.3244 46° Northeast 106 122 11,100 -48 Level Kansas City Center
Fri 05:21:17 PM 38.2725 -91.2950 40° Northeast 106 122 11,000 -49 Descending Kansas City Center
Fri 05:22:18 PM 38.2933 -91.2692 44° Northeast 106 122 11,000  Level Kansas City Center
Fri 05:23:21 PM 38.3133 -91.2425 46° Northeast 106 122 11,000  Level Kansas City Center
Fri 05:24:22 PM 38.3336 -91.2175 44° Northeast 106 122 11,000 48 Level Kansas City Center
Fri 05:25:26 PM 38.3525 -91.1967 41° Northeast 97 112 11,100 48 Climbing Kansas City Center
Fri 05:26:27 PM 38.3781 -91.1694 40° Northeast 96 110 11,100  Level Kansas City Center
Fri 05:27:28 PM 38.3986 -91.1450 43° Northeast 97 112 11,100  Level Kansas City Center
Fri 05:28:31 PM 38.4197 -91.1197 43° Northeast 100 115 11,100  Level Kansas City Center
Fri 05:29:34 PM 38.4419 -91.0947 41° Northeast 102 117 11,100  Level Kansas City Center
Fri 05:30:36 PM 38.4639 -91.0706 41° Northeast 102 117 11,100 49 Level Kansas City Center
Fri 05:31:36 PM 38.4867 -91.0456 41° Northeast 104 120 11,200  Climbing Kansas City Center
Fri 05:32:40 PM 38.5122 -91.0142 44° Northeast 104 120 11,100 -48 Descending Kansas City Center
Fri 05:33:41 PM 38.5347 -90.9869 43° Northeast 106 122 11,100  Level Kansas City Center
Fri 05:34:43 PM 38.5569 -90.9600 43° Northeast 109 125 11,100  Level Kansas City Center
Fri 05:35:46 PM 38.5797 -90.9339 42° Northeast 109 125 11,100 -48 Level Kansas City Center
Fri 05:36:47 PM 38.6025 -90.9072 42° Northeast 109 125 11,000  Descending Kansas City Center
Fri 05:37:48 PM 38.6236 -90.8819 43° Northeast 109 125 11,100 48 Climbing Kansas City Center
Fri 05:38:52 PM 38.6481 -90.8519 44° Northeast 107 123 11,100  Level Kansas City Center
Fri 05:39:53 PM 38.6692 -90.8267 43° Northeast 105 121 11,100  Level Kansas City Center
Fri 05:40:55 PM 38.6903 -90.8008 44° Northeast 105 121 11,100  Level Kansas City Center
Fri 05:41:59 PM 38.7117 -90.7778 40° Northeast 104 120 11,100  Level Kansas City Center
Fri 05:42:59 PM 38.7342 -90.7519 42° Northeast 104 120 11,100  Level Kansas City Center
Fri 05:44:03 PM 38.7569 -90.7247 43° Northeast 107 123 11,100  Level Kansas City Center
Fri 05:45:03 PM 38.7794 -90.6969 44° Northeast 110 127 11,100  Level Kansas City Center
Fri 05:46:07 PM 38.8064 -90.6656 42° Northeast 110 127 11,100  Level Kansas City Center
Fri 05:47:07 PM 38.8294 -90.6389 42° Northeast 110 127 11,100  Level Kansas City Center
Fri 05:48:09 PM 38.8522 -90.6106 44° Northeast 110 127 11,100  Level Kansas City Center
Fri 05:49:13 PM 38.8744 -90.5828 44° Northeast 111 128 11,100  Level Kansas City Center
Fri 05:50:14 PM 38.8969 -90.5575 41° Northeast 110 127 11,100  Level Kansas City Center
Fri 05:51:17 PM 38.9189 -90.5306 44° Northeast 110 127 11,100  Level Kansas City Center
Fri 05:52:19 PM 38.9436 -90.4994 44° Northeast 110 127 11,100  Level Kansas City Center
Fri 05:53:19 PM 38.9678 -90.4703 43° Northeast 110 127 11,100  Level Kansas City Center
Fri 05:54:23 PM 38.9906 -90.4433 43° Northeast 109 125 11,100 -48 Level Kansas City Center
Fri 05:55:24 PM 39.0158 -90.4153 41° Northeast 110 127 11,000  Descending Kansas City Center
Fri 05:56:28 PM 39.0361 -90.3903 44° Northeast 105 121 11,100 48 Climbing Kansas City Center
Fri 05:57:29 PM 39.0581 -90.3664 40° Northeast 105 121 11,100 -49 Level Kansas City Center
Fri 05:58:30 PM 39.0808 -90.3417 40° Northeast 102 117 11,000 -47 Descending Kansas City Center
Fri 05:59:36 PM 39.1028 -90.3156 43° Northeast 102 117 11,000  Level Kansas City Center
Fri 06:00:37 PM 39.1233 -90.2914 42° Northeast 101 116 11,000 48 Level Kansas City Center
Fri 06:01:40 PM 39.1447 -90.2653 43° Northeast 101 116 11,100 48 Climbing Kansas City Center
Fri 06:02:41 PM 39.1642 -90.2411 44° Northeast 99 114 11,100 48 Level Kansas City Center
Fri 06:03:45 PM 39.1861 -90.2144 43° Northeast 99 114 11,200  Climbing Kansas City Center
Fri 06:04:46 PM 39.2089 -90.1864 44° Northeast 111 128 11,100 -97 Descending Kansas City Center
Fri 06:05:49 PM 39.2306 -90.1575 46° Northeast 113 130 11,000  Descending Kansas City Center
Fri 06:06:50 PM 39.2494 -90.1314 47° Northeast 106 122 11,100 49 Climbing Kansas City Center
Fri 06:07:51 PM 39.2694 -90.1078 42° Northeast 101 116 11,100 48 Level Kansas City Center
Fri 06:08:55 PM 39.2900 -90.0867 38° Northeast 99 114 11,200 97 Climbing Kansas City Center
Fri 06:09:55 PM 39.3153 -90.0586 41° Northeast 99 114 11,300  Climbing Kansas City Center
Fri 06:10:59 PM 39.3381 -90.0322 42° Northeast 104 120 11,200 -97 Descending Kansas City Center
Fri 06:11:59 PM 39.3600 -90.0028 46° Northeast 110 127 11,100 -48 Descending Kansas City Center
Fri 06:13:03 PM 39.3814 -89.9736 47° Northeast 111 128 11,100  Level Kansas City Center
Fri 06:14:06 PM 39.4028 -89.9489 42° Northeast 109 125 11,100  Level Kansas City Center
Fri 06:15:06 PM 39.4239 -89.9253 41° Northeast 105 121 11,100 48 Level Kansas City Center
Fri 06:16:10 PM 39.4483 -89.8967 42° Northeast 101 116 11,200  Climbing Kansas City Center
Fri 06:17:11 PM 39.4703 -89.8733 39° Northeast 101 116 11,100 -49 Descending Kansas City Center
Fri 06:18:12 PM 39.4906 -89.8478 44° Northeast 101 116 11,100 -48 Level Kansas City Center
Fri 06:19:17 PM 39.5131 -89.8219 42° Northeast 103 119 11,000 -48 Descending Kansas City Center
Fri 06:20:17 PM 39.5339 -89.7972 42° Northeast 103 119 11,000  Level Kansas City Center
Fri 06:21:18 PM 39.5542 -89.7714 44° Northeast 103 119 11,000 48 Level Kansas City Center
Fri 06:22:22 PM 39.5775 -89.7392 47° Northeast 103 119 11,100 48 Climbing Kansas City Center
Fri 06:23:22 PM 39.5975 -89.7133 45° Northeast 103 119 11,100 -48 Level Kansas City Center
Fri 06:24:26 PM 39.6186 -89.6875 43° Northeast 103 119 11,000  Descending Kansas City Center
Fri 06:25:26 PM 39.6389 -89.6622 44° Northeast 103 119 11,100 48 Climbing Kansas City Center
Fri 06:26:30 PM 39.6600 -89.6394 40° Northeast 102 117 11,100  Level Kansas City Center
Fri 06:27:31 PM 39.6853 -89.6058 46° Northeast 103 119 11,100 -48 Level Kansas City Center
Fri 06:28:35 PM 39.7069 -89.5819 40° Northeast 103 119 11,000 -48 Descending Kansas City Center
Fri 06:29:35 PM 39.7281 -89.5533 46° Northeast 103 119 11,000  Level Kansas City Center
Fri 06:30:39 PM 39.7481 -89.5272 45° Northeast 103 119 11,000  Level Kansas City Center
Fri 06:31:39 PM 39.7681 -89.5014 45° Northeast 103 119 11,000  Level Kansas City Center
Fri 06:32:42 PM 39.7889 -89.4756 44° Northeast 103 119 11,000  Level Kansas City Center
Fri 06:33:44 PM 39.8092 -89.4511 43° Northeast 103 119 11,000 48 Level Kansas City Center
Fri 06:34:47 PM 39.8294 -89.4275 42° Northeast 102 117 11,100 49 Climbing Kansas City Center
Fri 06:35:47 PM 39.8547 -89.3994 40° Northeast 100 115 11,100  Level Kansas City Center
Fri 06:36:51 PM 39.8750 -89.3744 43° Northeast 100 115 11,100 48 Level Kansas City Center
Fri 06:37:51 PM 39.8972 -89.3450 45° Northeast 108 124 11,200  Climbing Kansas City Center
Fri 06:38:53 PM 39.9169 -89.3158 49° Northeast 108 124 11,100 -48 Descending Kansas City Center
Fri 06:39:57 PM 39.9389 -89.2847 47° Northeast 111 128 11,100 -48 Level Kansas City Center
Fri 06:40:58 PM 39.9600 -89.2578 44° Northeast 111 128 11,000  Descending Kansas City Center
Fri 06:42:01 PM 39.9842 -89.2264 45° Northeast 108 124 11,100 48 Climbing Kansas City Center
Fri 06:43:03 PM 40.0044 -89.2025 42° Northeast 104 120 11,100  Level Kansas City Center
Fri 06:44:03 PM 40.0256 -89.1806 39° Northeast 101 116 11,100 48 Level Kansas City Center
Fri 06:45:07 PM 40.0478 -89.1561 40° Northeast 101 116 11,200  Climbing Kansas City Center
Fri 06:46:08 PM 40.0697 -89.1264 46° Northeast 108 124 11,100 -48 Descending Kansas City Center
Fri 06:47:12 PM 40.0906 -89.0989 45° Northeast 109 125 11,100  Level Kansas City Center
Fri 06:48:12 PM 40.1181 -89.0650 43° Northeast 109 125 11,100  Level Kansas City Center
Fri 06:49:15 PM 40.1389 -89.0383 44° Northeast 109 125 11,100  Level Kansas City Center
Fri 06:50:16 PM 40.1592 -89.0108 46° Northeast 108 124 11,100  Level Kansas City Center
Fri 06:51:19 PM 40.1817 -88.9858 40° Northeast 107 123 11,100  Level Kansas City Center
Fri 06:52:20 PM 40.2036 -88.9597 42° Northeast 107 123 11,100 -48 Level Kansas City Center
Fri 06:53:23 PM 40.2244 -88.9333 44° Northeast 107 123 11,000  Descending Kansas City Center
Fri 06:54:32 PM 40.2500 -88.8997 45° Northeast 108 124 11,100 46 Climbing Chicago Center
Fri 06:55:34 PM 40.2706 -88.8714 46° Northeast 108 124 11,100  Level Chicago Center
Fri 06:56:36 PM 40.2964 -88.8394 43° Northeast 108 124 11,100 -48 Level Chicago Center
Fri 06:57:38 PM 40.3172 -88.8131 44° Northeast 107 123 11,000 -48 Descending Chicago Center
Fri 06:58:40 PM 40.3372 -88.7881 44° Northeast 104 120 11,000 48 Level Chicago Center
Fri 06:59:42 PM 40.3569 -88.7628 44° Northeast 103 119 11,100 48 Climbing Chicago Center
Fri 07:00:44 PM 40.3781 -88.7383 41° Northeast 102 117 11,100  Level Chicago Center
Fri 07:01:46 PM 40.3994 -88.7100 45° Northeast 105 121 11,100  Level Chicago Center
Fri 07:02:49 PM 40.4278 -88.6756 43° Northeast 112 129 11,100  Level Chicago Center
Fri 07:03:51 PM 40.4500 -88.6467 45° Northeast 113 130 11,100  Level Chicago Center
Fri 07:04:53 PM 40.4736 -88.6178 43° Northeast 113 130 11,100  Level Chicago Center
Fri 07:05:55 PM 40.4958 -88.5900 44° Northeast 113 130 11,100  Level Chicago Center
Fri 07:06:57 PM 40.5186 -88.5625 43° Northeast 112 129 11,100  Level Chicago Center
Fri 07:07:59 PM 40.5406 -88.5347 44° Northeast 112 129 11,100 -194 Level Chicago Center
Fri 07:09:01 PM 40.5689 -88.4989 44° Northeast 114 131 10,700 -387 Descending Chicago Center
Fri 07:10:03 PM 40.5928 -88.4656 47° Northeast 120 138 10,300 -484 Descending Chicago Center
Fri 07:11:05 PM 40.6167 -88.4308 48° Northeast 124 143 9,700 -581 Descending Chicago Center
Fri 07:12:07 PM 40.6417 -88.4006 43° Northeast 124 143 9,100 -532 Descending Chicago Center
Fri 07:13:09 PM 40.6647 -88.3697 45° Northeast 123 142 8,600 -629 Descending Chicago Center
Fri 07:14:11 PM 40.6947 -88.3347 41° Northeast 123 142 7,800 -677 Descending Chicago Center
Fri 07:15:13 PM 40.7158 -88.3031 49° Northeast 120 138 7,200 -532 Descending Chicago Center
Fri 07:16:15 PM 40.7356 -88.2725 50° Northeast 114 131 6,700 -290 Descending Chicago Center
Fri 07:17:17 PM 40.7564 -88.2425 47° Northeast 114 131 6,600 -528 Descending Chicago Center
Fri 07:18:20 PM 40.7775 -88.2114 48° Northeast 113 130 5,600 -1,056 Descending Chicago Center
Fri 07:19:22 PM 40.7983 -88.1731 54° Northeast 118 136 4,400 -1,016 Descending Chicago Center
Fri 07:20:24 PM 40.8242 -88.1264 54° Northeast 126 145 3,500 -581 Descending Chicago Center
Fri 07:21:26 PM 40.8439 -88.0883 56° Northeast 126 145 3,200 -194 Descending Chicago Center
Fri 07:22:28 PM 40.8658 -88.0586 46° Northeast 125 144 3,100 -145 Descending Chicago Center
Fri 07:23:30 PM 40.8908 -88.0389 31° Northeast 113 130 2,900 -194 Descending Chicago Center

Login

Don't have an account? Register now (free) for customized features, flight alerts, and more!